Time;durP1;ratioP1;P1;durP2;ratioP2;P2;SDS_P1;SDS_P2;PMS_P1;PMS_P2;Temp;Humidity;BMP_temperature;BMP_pressure;BME280_temperature;BME280_humidity;BME280_pressure;Samples;Min_cycle;Max_cycle;Signal;HPM_P1;HPM_P2
2022/05/13 00:00:35;;;;;;;;;14.50;14.25;;;;;15.76;49.63;101868.38;5037969;28;45882;-72
2022/05/13 00:03:00;;;;;;;;;10.50;10.25;;;;;15.78;49.56;101861.31;5037700;28;45660;-71
2022/05/13 00:05:25;;;;;;;;;8.75;8.00;;;;;15.69;49.81;101864.22;5036148;28;45357;-71
2022/05/13 00:07:51;;;;;;;;;16.50;7.25;;;;;15.67;49.54;101860.81;5037112;28;46390;-72
2022/05/13 00:10:16;;;;;;;;;6.50;6.50;;;;;15.64;50.60;101860.91;5046127;28;45396;-71
2022/05/13 00:12:42;;;;;;;;;9.50;6.50;;;;;15.64;50.03;101872.25;5037116;28;45406;-73
2022/05/13 00:15:14;;;;;;;;;8.25;5.25;;;;;15.66;49.80;101870.44;5037495;28;45316;-73
2022/05/13 00:17:42;;;;;;;;;7.00;5.50;;;;;15.66;50.06;101865.19;5037849;28;46380;-72
2022/05/13 00:20:09;;;;;;;;;5.75;3.00;;;;;15.67;49.88;101868.66;5037275;28;45370;-73
2022/05/13 00:22:44;;;;;;;;;4.25;4.00;;;;;15.66;50.69;101869.56;5035918;28;45510;-72
2022/05/13 00:25:10;;;;;;;;;4.50;3.75;;;;;15.59;50.56;101862.78;5037710;28;45512;-72
2022/05/13 00:27:35;;;;;;;;;2.25;2.25;;;;;15.57;50.48;101867.19;5037117;28;46170;-72
2022/05/13 00:30:02;;;;;;;;;2.75;2.25;;;;;15.49;50.77;101859.56;5037897;28;45241;-71
2022/05/13 00:32:27;;;;;;;;;2.25;1.00;;;;;15.47;50.92;101858.75;5039856;28;45324;-72
2022/05/13 00:34:52;;;;;;;;;2.50;2.00;;;;;15.43;51.09;101868.47;5036339;28;45406;-71
2022/05/13 00:37:18;;;;;;;;;1.75;1.75;;;;;15.39;50.79;101853.72;5039102;28;46167;-71
2022/05/13 00:39:44;;;;;;;;;2.75;2.75;;;;;15.40;51.15;101855.44;5039968;28;45319;-69
2022/05/13 00:42:12;;;;;;;;;2.00;1.00;;;;;15.39;50.56;101860.72;5039677;28;45383;-71
2022/05/13 00:44:38;;;;;;;;;4.50;2.00;;;;;15.31;51.46;101855.72;5038265;28;45500;-71
2022/05/13 00:47:04;;;;;;;;;2.00;2.00;;;;;15.24;51.14;101855.97;5038087;28;48403;-70
2022/05/13 00:49:31;;;;;;;;;2.00;2.00;;;;;15.22;52.03;101853.38;5039484;28;45229;-71
2022/05/13 00:51:59;;;;;;;;;1.00;1.00;;;;;15.17;51.37;101857.88;5039449;28;45288;-72
2022/05/13 00:54:25;;;;;;;;;4.00;1.00;;;;;15.14;51.58;101852.72;5039661;28;45534;-73
2022/05/13 00:56:50;;;;;;;;;1.25;1.25;;;;;15.07;52.04;101856.44;5039904;28;45332;-73
2022/05/13 00:59:19;;;;;;;;;1.75;1.00;;;;;14.99;51.81;101861.00;5039565;28;45143;-72
2022/05/13 01:01:45;;;;;;;;;2.50;0.50;;;;;14.97;51.63;101860.19;5039607;28;45383;-71
2022/05/13 01:04:13;;;;;;;;;4.25;1.75;;;;;14.95;51.72;101860.25;5039286;28;45553;-72
2022/05/13 01:06:44;;;;;;;;;3.00;1.00;;;;;14.91;52.06;101864.72;5038931;28;45695;-71
2022/05/13 01:09:10;;;;;;;;;2.00;1.00;;;;;14.88;52.82;101867.41;5044930;28;45597;-71
2022/05/13 01:11:38;;;;;;;;;2.50;1.00;;;;;14.83;52.36;101864.06;5039373;28;45358;-71
2022/05/13 01:14:14;;;;;;;;;0.75;0.25;;;;;14.80;52.62;101864.13;5044110;28;45473;-71
2022/05/13 01:19:23;;;;;;;;;1.00;1.00;;;;;14.73;52.07;101862.59;5038937;28;45339;-71
2022/05/13 01:21:49;;;;;;;;;2.50;1.25;;;;;14.71;52.87;101855.69;5039012;28;45371;-70
2022/05/13 01:24:20;;;;;;;;;2.00;1.00;;;;;14.70;52.91;101867.91;5039158;28;45383;-69
2022/05/13 01:26:45;;;;;;;;;1.25;1.25;;;;;14.68;52.50;101861.88;5037539;28;47264;-69
2022/05/13 01:29:11;;;;;;;;;2.00;1.00;;;;;14.67;52.26;101860.16;5038885;28;45298;-69
2022/05/13 01:31:39;;;;;;;;;0.75;0.75;;;;;14.65;52.31;101856.72;5037988;28;45327;-69
2022/05/13 01:34:11;;;;;;;;;1.75;1.00;;;;;14.59;52.89;101851.63;5037417;28;45612;-70
2022/05/13 01:36:39;;;;;;;;;1.50;0.75;;;;;14.57;53.27;101862.13;5037118;28;48616;-70
2022/05/13 01:39:05;;;;;;;;;3.00;2.00;;;;;14.55;52.89;101863.94;5038897;28;45307;-69
2022/05/13 01:41:32;;;;;;;;;2.50;1.25;;;;;14.55;53.05;101865.69;5041601;28;45314;-70
2022/05/13 01:43:58;;;;;;;;;1.00;1.00;;;;;14.51;53.48;101871.91;5042221;28;45217;-69
2022/05/13 01:46:24;;;;;;;;;2.00;1.00;;;;;14.48;53.54;101872.84;5033079;28;45801;-68
2022/05/13 01:48:51;;;;;;;;;1.50;1.50;;;;;14.43;53.00;101871.22;5042155;28;45596;-69
2022/05/13 01:51:17;;;;;;;;;2.00;2.00;;;;;14.42;52.93;101861.66;5042209;28;45485;-68
2022/05/13 01:53:42;;;;;;;;;5.00;1.00;;;;;14.44;52.90;101868.59;5042294;28;45325;-69
2022/05/13 01:56:08;;;;;;;;;2.75;2.00;;;;;14.43;53.23;101860.75;5042064;28;46248;-68
2022/05/13 01:58:34;;;;;;;;;1.25;1.00;;;;;14.38;53.39;101862.59;5041896;28;45296;-69
2022/05/13 02:01:01;;;;;;;;;0.25;0.25;;;;;14.35;53.29;101857.47;5042516;28;45480;-69
2022/05/13 02:03:45;;;;;;;;;1.50;1.00;;;;;14.34;52.91;101851.38;5041579;28;45535;-69
2022/05/13 02:06:22;;;;;;;;;2.00;2.00;;;;;14.37;52.92;101863.50;5041628;28;45428;-70
2022/05/13 02:08:50;;;;;;;;;5.00;4.00;;;;;14.37;53.36;101858.28;5044283;28;45271;-70
2022/05/13 02:11:16;;;;;;;;;19.00;10.50;;;;;14.31;53.13;101862.78;5046151;28;45217;-70
2022/05/13 02:13:42;;;;;;;;;18.75;16.75;;;;;14.33;53.25;101865.34;5040915;28;45449;-70
2022/05/13 02:16:08;;;;;;;;;16.00;12.25;;;;;14.34;53.34;101866.19;5040969;28;46262;-70
2022/05/13 02:18:34;;;;;;;;;22.50;19.25;;;;;14.37;53.23;101860.88;5039257;28;45932;-69
2022/05/13 02:20:59;;;;;;;;;34.00;28.75;;;;;14.37;53.28;101859.13;5039045;28;45526;-70
2022/05/13 02:23:25;;;;;;;;;36.50;31.50;;;;;14.37;53.08;101866.97;5039411;28;45384;-70
2022/05/13 02:25:57;;;;;;;;;41.75;35.50;;;;;14.37;53.54;101873.97;5039158;28;45562;-70
2022/05/13 02:28:23;;;;;;;;;48.00;35.00;;;;;14.32;53.54;101861.00;5039233;28;45390;-71
2022/05/13 02:30:49;;;;;;;;;49.25;37.75;;;;;14.31;53.23;101869.75;5039187;28;45406;-70
2022/05/13 02:33:14;;;;;;;;;42.25;33.50;;;;;14.30;53.51;101868.91;5039178;28;45408;-70
2022/05/13 02:35:40;;;;;;;;;37.75;32.00;;;;;14.26;53.46;101863.78;5040948;28;45977;-70
2022/05/13 02:38:05;;;;;;;;;38.00;29.50;;;;;14.24;53.37;101863.81;5041205;28;45312;-69
2022/05/13 02:43:14;;;;;;;;;24.50;19.00;;;;;14.15;53.94;101866.66;5038772;28;45640;-69
2022/05/13 02:45:40;;;;;;;;;11.25;9.25;;;;;14.15;54.38;101861.41;5038790;28;46657;-70
2022/05/13 02:48:06;;;;;;;;;9.50;6.00;;;;;14.13;54.16;101868.44;5038707;28;45335;-71
2022/05/13 02:50:32;;;;;;;;;5.00;4.25;;;;;14.09;54.54;101860.72;5038981;28;45333;-70
2022/05/13 02:52:58;;;;;;;;;4.75;3.25;;;;;14.05;54.50;101867.78;5037070;28;45424;-71
2022/05/13 02:55:23;;;;;;;;;6.25;3.00;;;;;14.02;54.89;101867.88;5040613;28;46248;-71
2022/05/13 02:57:49;;;;;;;;;2.50;2.00;;;;;14.00;54.64;101857.41;5041121;28;45229;-70
2022/05/13 03:00:14;;;;;;;;;1.50;1.00;;;;;14.02;54.61;101862.63;5041127;28;45429;-70
2022/05/13 03:02:40;;;;;;;;;6.00;3.00;;;;;14.02;54.23;101859.16;5041230;28;45300;-72
2022/05/13 03:05:06;;;;;;;;;3.00;2.50;;;;;14.04;54.02;101850.38;5040738;28;45328;-72
2022/05/13 03:07:32;;;;;;;;;4.75;3.75;;;;;14.11;53.98;101856.31;5040797;28;45382;-74
2022/05/13 03:09:57;;;;;;;;;3.00;2.00;;;;;14.11;54.05;101861.53;5047535;28;45330;-72
2022/05/13 03:12:23;;;;;;;;;4.25;2.75;;;;;14.13;54.47;101855.38;5040921;28;45615;-71
2022/05/13 03:14:48;;;;;;;;;5.50;3.25;;;;;14.12;54.31;101860.66;5041053;28;45577;-72
2022/05/13 03:17:14;;;;;;;;;3.25;3.25;;;;;14.13;54.37;101855.38;5040924;28;45469;-71
2022/05/13 03:19:40;;;;;;;;;5.00;3.00;;;;;14.17;54.42;101858.78;5040802;28;45281;-71
2022/05/13 03:22:06;;;;;;;;;3.00;3.00;;;;;14.18;54.60;101855.25;5040535;28;45391;-72
2022/05/13 03:24:32;;;;;;;;;2.25;2.00;;;;;14.19;55.02;101862.19;5040670;28;45464;-72
2022/05/13 03:26:57;;;;;;;;;3.00;3.00;;;;;14.12;55.51;101853.66;5039449;28;45319;-71
2022/05/13 03:29:23;;;;;;;;;5.25;3.00;;;;;14.13;55.11;101857.13;5040806;28;45174;-72
2022/05/13 03:31:49;;;;;;;;;4.75;2.00;;;;;14.12;55.47;101851.03;5040956;28;45304;-71
2022/05/13 03:34:14;;;;;;;;;3.50;3.00;;;;;14.10;55.70;101852.84;5040311;28;45417;-71
2022/05/13 03:36:40;;;;;;;;;5.00;3.50;;;;;14.11;56.16;101865.00;5040503;28;45279;-73
2022/05/13 03:39:05;;;;;;;;;3.00;3.00;;;;;14.09;55.48;101850.25;5040647;28;45439;-71
2022/05/13 03:41:31;;;;;;;;;3.25;3.25;;;;;14.04;55.84;101853.00;5040706;28;45480;-74
2022/05/13 03:43:56;;;;;;;;;4.50;3.50;;;;;14.10;56.01;101855.47;5040012;28;45666;-73
2022/05/13 03:46:22;;;;;;;;;1.75;1.75;;;;;14.08;56.05;101854.63;5040480;28;45465;-72
2022/05/13 03:48:47;;;;;;;;;4.75;2.75;;;;;14.06;56.82;101856.44;5043351;28;45648;-73
2022/05/13 03:51:13;;;;;;;;;3.75;3.25;;;;;14.04;56.40;101855.63;5050115;28;45586;-72
2022/05/13 03:53:38;;;;;;;;;2.00;2.00;;;;;14.04;55.84;101867.81;5040106;28;45458;-71
2022/05/13 03:56:05;;;;;;;;;3.00;2.50;;;;;13.99;56.51;101863.53;5039121;28;45483;-73
2022/05/13 03:58:31;;;;;;;;;3.50;2.25;;;;;13.97;56.17;101873.19;5040258;28;45493;-72
2022/05/13 04:00:56;;;;;;;;;2.00;2.00;;;;;13.96;56.50;101868.84;5040409;28;45474;-71
2022/05/13 04:03:22;;;;;;;;;3.50;3.50;;;;;13.94;56.65;101861.94;5038850;28;46422;-72
2022/05/13 04:11:15;;;;;;;;;4.00;4.00;;;;;13.94;56.88;101860.19;5044208;28;45422;-68
2022/05/13 04:16:25;;;;;;;;;4.75;3.00;;;;;13.96;56.48;101868.84;5039496;28;46129;-73
2022/05/13 04:18:54;;;;;;;;;4.00;3.00;;;;;13.98;56.42;101866.19;5039903;28;45380;-71
2022/05/13 04:21:28;;;;;;;;;3.25;3.00;;;;;13.97;56.68;101872.31;5039803;28;45228;-76
2022/05/13 04:23:56;;;;;;;;;3.00;3.00;;;;;13.98;56.70;101869.66;5039723;28;46582;-75
2022/05/13 04:26:21;;;;;;;;;4.00;2.75;;;;;13.99;56.78;101866.16;5039475;28;45885;-75
2022/05/13 04:28:49;;;;;;;;;5.00;4.00;;;;;14.04;56.77;101873.91;5038673;28;45675;-74
2022/05/13 04:31:17;;;;;;;;;4.50;3.25;;;;;14.03;56.77;101884.41;5039772;28;45504;-74
2022/05/13 04:33:43;;;;;;;;;4.75;3.00;;;;;14.05;56.73;101886.09;5039461;28;45422;-73
2022/05/13 04:36:10;;;;;;;;;3.25;3.25;;;;;14.08;56.71;101882.53;5038947;28;45489;-73
2022/05/13 04:38:36;;;;;;;;;5.75;4.00;;;;;14.08;56.81;101874.69;5036519;28;46475;-72
2022/05/13 04:43:46;;;;;;;;;7.25;4.75;;;;;14.11;56.97;101882.44;5040632;28;45975;-77
2022/05/13 04:46:12;;;;;;;;;6.00;6.00;;;;;14.09;56.88;101879.88;5040659;28;45327;-77
2022/05/13 04:48:37;;;;;;;;;5.00;3.50;;;;;14.09;56.94;101879.88;5039079;28;45581;-77
2022/05/13 04:51:03;;;;;;;;;6.00;3.75;;;;;14.12;56.54;101889.41;5039336;28;45309;-77
2022/05/13 04:53:31;;;;;;;;;8.25;5.25;;;;;14.15;56.74;101884.94;5052279;28;46461;-78
2022/05/13 04:55:58;;;;;;;;;16.75;12.75;;;;;14.16;56.62;101886.66;5037913;28;45709;-76
2022/05/13 04:58:25;;;;;;;;;8.75;6.75;;;;;14.17;56.56;101891.00;5039152;28;45315;-75
2022/05/13 05:00:54;;;;;;;;;12.00;10.00;;;;;14.20;56.45;101901.38;5035553;28;45185;-76
2022/05/13 05:03:21;;;;;;;;;11.25;10.75;;;;;14.22;56.36;101904.84;5036599;28;45606;-76
2022/05/13 05:05:47;;;;;;;;;5.50;5.50;;;;;14.17;57.07;101906.69;5039073;28;45302;-77
2022/05/13 05:08:14;;;;;;;;;5.00;4.50;;;;;14.08;57.54;101901.69;5034490;28;45204;-76
2022/05/13 05:10:41;;;;;;;;;17.50;11.00;;;;;14.04;57.25;101900.03;5031922;28;47147;-74
2022/05/13 05:13:07;;;;;;;;;4.75;4.00;;;;;14.09;57.18;101913.88;5038441;28;45387;-74
2022/05/13 05:15:34;;;;;;;;;4.25;4.25;;;;;14.05;58.51;101913.97;5036075;28;45341;-71
2022/05/13 05:18:00;;;;;;;;;5.50;4.75;;;;;14.06;57.88;101913.06;5040180;28;45406;-73
2022/05/13 05:20:26;;;;;;;;;5.25;3.25;;;;;14.06;58.22;101913.94;5037831;28;45285;-67
2022/05/13 05:22:52;;;;;;;;;6.00;4.00;;;;;14.10;57.84;101918.19;5041777;28;45341;-72
2022/05/13 05:25:20;;;;;;;;;8.00;4.75;;;;;14.13;58.62;101922.50;5042171;28;45228;-69
2022/05/13 05:27:47;;;;;;;;;5.50;5.00;;;;;14.16;58.73;101920.66;5042109;28;45543;-72
2022/05/13 05:30:14;;;;;;;;;5.75;4.00;;;;;14.15;58.15;101918.94;5042386;28;45442;-72
2022/05/13 05:32:41;;;;;;;;;4.50;3.00;;;;;14.21;59.18;101933.59;5041929;28;45397;-71
2022/05/13 05:35:10;;;;;;;;;5.25;3.00;;;;;14.22;59.78;101932.75;5041812;28;45990;-71
2022/05/13 05:37:35;;;;;;;;;5.75;4.00;;;;;14.21;59.62;101934.47;5041799;28;45439;-70
2022/05/13 05:40:01;;;;;;;;;2.00;2.00;;;;;14.26;59.14;101937.84;5042176;28;45339;-70
2022/05/13 05:42:26;;;;;;;;;4.00;4.00;;;;;14.23;60.12;101927.47;5054394;28;45424;-70
2022/05/13 05:44:52;;;;;;;;;5.25;4.25;;;;;14.27;59.82;101936.09;5041484;28;45486;-70
2022/05/13 05:47:21;;;;;;;;;5.75;4.00;;;;;14.25;59.49;101932.66;5041748;28;45361;-74
2022/05/13 05:49:47;;;;;;;;;4.75;3.50;;;;;14.31;59.87;101940.34;5041589;28;45419;-71
2022/05/13 05:52:13;;;;;;;;;6.25;4.50;;;;;14.31;60.15;101941.22;5041273;28;47258;-74
2022/05/13 05:57:23;;;;;;;;;11.75;8.50;;;;;14.47;59.61;101940.88;5041803;28;45298;-76
2022/05/13 05:59:49;;;;;;;;;3.25;3.00;;;;;14.50;59.63;101941.66;5041514;28;45337;-78
2022/05/13 06:02:16;;;;;;;;;5.00;5.00;;;;;14.52;60.21;101949.47;5041820;28;46140;-76
2022/05/13 06:04:41;;;;;;;;;6.00;5.00;;;;;14.59;60.16;101957.13;5041246;28;45430;-73
2022/05/13 06:07:10;;;;;;;;;6.00;6.00;;;;;14.65;59.85;101961.38;5040637;28;46011;-72
2022/05/13 06:09:36;;;;;;;;;5.75;4.50;;;;;14.71;59.72;101955.97;5043044;28;45363;-72
2022/05/13 06:12:05;;;;;;;;;6.50;5.00;;;;;14.76;59.88;101968.94;5029278;28;46375;-71
2022/05/13 06:14:30;;;;;;;;;7.25;5.00;;;;;14.78;59.62;101957.53;5039663;28;45806;-73
2022/05/13 06:16:56;;;;;;;;;7.25;7.00;;;;;14.90;59.48;101975.53;5041754;28;45213;-74
2022/05/13 06:19:21;;;;;;;;;6.00;5.00;;;;;14.96;59.78;101971.91;5041239;28;45339;-73
2022/05/13 06:21:47;;;;;;;;;3.00;2.00;;;;;14.96;59.17;101968.44;5041183;28;45327;-74
2022/05/13 06:24:12;;;;;;;;;9.50;6.00;;;;;15.04;59.43;101964.72;5039814;28;45312;-72
2022/05/13 06:26:38;;;;;;;;;10.75;7.00;;;;;15.10;58.93;101974.16;5040627;28;45268;-72
2022/05/13 06:29:05;;;;;;;;;6.50;6.50;;;;;15.13;59.11;101969.69;5040044;28;45564;-77
2022/05/13 06:31:31;;;;;;;;;9.50;6.00;;;;;15.21;58.81;101972.09;5041611;28;45357;-71
2022/05/13 06:33:56;;;;;;;;;7.50;7.50;;;;;15.26;59.00;101978.09;5038449;28;45732;-69
2022/05/13 06:36:22;;;;;;;;;8.00;5.00;;;;;15.31;58.45;101977.97;5040004;28;45510;-73
2022/05/13 06:38:47;;;;;;;;;6.50;5.25;;;;;15.36;58.22;101979.56;5039627;28;45443;-75
2022/05/13 06:41:13;;;;;;;;;12.50;10.75;;;;;15.45;58.23;101991.56;5038632;28;45420;-78
2022/05/13 06:43:39;;;;;;;;;8.75;6.50;;;;;15.55;57.82;101989.53;5050783;28;45565;-69
2022/05/13 06:46:05;;;;;;;;;7.00;5.00;;;;;15.67;57.66;101991.84;5037484;28;45447;-76
2022/05/13 06:48:30;;;;;;;;;8.00;4.75;;;;;15.76;57.26;101989.78;5034722;28;45455;-77
2022/05/13 06:50:55;;;;;;;;;5.75;5.75;;;;;15.84;57.23;101989.59;5040635;28;46167;-81
2022/05/13 06:53:21;;;;;;;;;6.00;5.25;;;;;15.93;56.73;101988.44;5040547;28;45342;-77
2022/05/13 06:55:47;;;;;;;;;8.00;5.00;;;;;15.98;55.97;102005.75;5040753;28;45268;-74
2022/05/13 06:58:13;;;;;;;;;11.75;6.00;;;;;15.96;55.61;102004.09;5040502;28;45248;-75
2022/05/13 07:00:40;;;;;;;;;5.75;5.50;;;;;15.91;55.90;102006.00;5040663;28;46619;-76
2022/05/13 07:03:06;;;;;;;;;4.50;3.50;;;;;15.91;56.01;102003.38;5040122;28;46736;-77
2022/05/13 07:05:32;;;;;;;;;4.75;3.50;;;;;15.99;55.31;102004.00;5040800;28;45288;-78
2022/05/13 07:07:58;;;;;;;;;6.50;4.25;;;;;15.96;54.48;101997.06;5039878;28;45177;-72
2022/05/13 07:10:24;;;;;;;;;5.75;2.00;;;;;15.98;54.26;102000.50;5045315;28;48214;-81
2022/05/13 07:12:49;;;;;;;;;9.00;4.25;;;;;16.10;54.67;101996.66;5040304;28;45238;-79
2022/05/13 07:15:17;;;;;;;;;6.00;4.25;;;;;16.20;54.53;102010.34;5040054;28;45198;-80
2022/05/13 07:17:43;;;;;;;;;6.25;4.75;;;;;16.30;54.15;102011.78;5041024;28;45224;-69
2022/05/13 07:20:11;;;;;;;;;4.00;4.00;;;;;16.42;53.99;102014.06;5040872;28;46883;-80
2022/05/13 07:22:36;;;;;;;;;7.75;3.75;;;;;16.47;53.66;102008.66;5040629;28;45233;-78
2022/05/13 07:25:03;;;;;;;;;3.50;3.50;;;;;16.52;52.61;102006.72;5041140;28;45210;-68
2022/05/13 07:27:29;;;;;;;;;3.00;3.00;;;;;16.53;52.75;102008.44;5040644;28;45174;-78
2022/05/13 07:29:54;;;;;;;;;5.75;5.75;;;;;16.54;52.45;102007.53;5040386;28;46405;-68
2022/05/13 07:32:20;;;;;;;;;4.25;3.00;;;;;16.57;52.32;102013.53;5040099;28;45265;-67
2022/05/13 07:34:45;;;;;;;;;5.50;4.50;;;;;16.53;52.79;102004.06;5040092;28;45235;-78
2022/05/13 07:37:10;;;;;;;;;6.00;4.00;;;;;16.64;52.31;102008.97;5052808;28;45253;-77
2022/05/13 07:42:20;;;;;;;;;5.75;5.00;;;;;16.80;51.91;102007.56;5053071;28;45235;-70
2022/05/13 07:44:45;;;;;;;;;4.50;4.25;;;;;16.85;52.25;102018.81;5040127;28;45423;-65
2022/05/13 07:47:11;;;;;;;;;6.50;3.25;;;;;16.91;51.64;102013.34;5040067;28;45569;-76
2022/05/13 07:49:40;;;;;;;;;4.50;3.00;;;;;17.05;51.58;102017.28;5040112;28;45414;-76
2022/05/13 07:52:06;;;;;;;;;5.00;4.50;;;;;17.22;51.59;102012.28;5040165;28;45305;-74
2022/05/13 07:54:32;;;;;;;;;5.25;4.00;;;;;17.42;51.02;102009.84;5040324;28;45439;-74
2022/05/13 07:56:57;;;;;;;;;8.25;6.25;;;;;17.57;50.83;102017.16;5039762;28;45628;-74
2022/05/13 07:59:22;;;;;;;;;4.00;2.25;;;;;17.63;50.49;102023.97;5038259;28;46903;-74
2022/05/13 08:01:48;;;;;;;;;4.75;3.00;;;;;17.72;50.49;102018.41;5037946;28;46222;-73
2022/05/13 08:04:13;;;;;;;;;8.75;4.75;;;;;17.77;49.75;102011.19;5049639;28;45230;-74
2022/05/13 08:06:44;;;;;;;;;12.25;7.00;;;;;17.83;50.25;102010.13;5040942;28;45314;-74
2022/05/13 08:09:10;;;;;;;;;6.00;4.25;;;;;17.96;49.52;102021.03;5044814;28;46191;-73
2022/05/13 08:11:36;;;;;;;;;3.50;3.00;;;;;17.90;49.57;102012.44;5040250;28;45355;-73
2022/05/13 08:14:01;;;;;;;;;6.75;3.50;;;;;17.80;48.00;102005.81;5039540;28;45335;-73
2022/05/13 08:16:29;;;;;;;;;2.75;2.75;;;;;17.72;49.16;102013.13;5037061;28;45332;-73
2022/05/13 08:18:56;;;;;;;;;3.25;3.25;;;;;17.80;49.60;102011.06;5046193;28;45837;-74
2022/05/13 08:21:22;;;;;;;;;4.00;4.00;;;;;17.92;49.80;102015.88;5044752;28;45830;-74
2022/05/13 08:23:48;;;;;;;;;6.00;4.00;;;;;18.03;49.47;102017.25;5039338;28;45438;-74
2022/05/13 08:26:14;;;;;;;;;4.25;3.00;;;;;18.13;49.40;102010.72;5039269;28;45426;-73
2022/05/13 08:28:41;;;;;;;;;5.00;4.00;;;;;18.21;49.28;102012.13;5039370;28;46419;-74
2022/05/13 08:31:07;;;;;;;;;5.00;3.25;;;;;18.22;48.49;102005.13;5040962;28;45259;-74
2022/05/13 08:33:32;;;;;;;;;8.00;3.25;;;;;18.17;47.96;102009.66;5040889;28;45493;-74
2022/05/13 08:36:01;;;;;;;;;6.00;3.00;;;;;18.20;47.99;102015.66;5037718;28;45894;-74
2022/05/13 08:38:32;;;;;;;;;4.50;2.50;;;;;18.21;48.95;102001.59;5037958;28;48098;-74
2022/05/13 08:40:57;;;;;;;;;4.25;2.75;;;;;18.32;48.39;102009.06;5039345;28;45396;-74
2022/05/13 08:43:37;;;;;;;;;9.50;4.00;;;;;18.41;48.61;102008.69;5037985;28;45315;-74
2022/05/13 08:46:29;;;;;;;;;7.75;6.00;;;;;18.52;47.36;102016.19;5048109;28;45437;-74
2022/05/13 08:49:07;;;;;;;;;4.50;4.50;;;;;18.49;47.77;102017.16;5038934;28;45616;-74
2022/05/13 08:51:53;;;;;;;;;3.25;2.00;;;;;18.44;47.03;102016.50;5039113;28;45304;-73
2022/05/13 08:54:22;;;;;;;;;2.00;2.00;;;;;18.43;46.27;102025.31;5039638;28;45313;-73
2022/05/13 08:56:50;;;;;;;;;4.00;3.00;;;;;18.44;44.82;102008.59;5039177;28;45273;-74
2022/05/13 08:59:22;;;;;;;;;4.00;3.00;;;;;18.42;43.78;102013.06;5039222;28;45715;-73
2022/05/13 09:02:34;;;;;;;;;5.00;2.75;;;;;18.48;44.05;102007.56;5039137;28;45627;-74
2022/05/13 09:05:07;;;;;;;;;4.75;3.00;;;;;18.48;44.56;102014.59;5038404;28;45374;-75
2022/05/13 09:07:33;;;;;;;;;2.00;2.00;;;;;18.48;44.85;102018.09;5039011;28;45398;-75
2022/05/13 09:10:01;;;;;;;;;4.25;4.25;;;;;18.53;41.85;102018.75;5047531;28;45287;-75
2022/05/13 09:12:38;;;;;;;;;1.50;1.50;;;;;18.54;42.64;102009.94;5037459;28;45395;-74
2022/05/13 09:15:30;;;;;;;;;2.75;2.75;;;;;18.73;43.47;102014.47;5037963;28;46795;-74
2022/05/13 09:18:23;;;;;;;;;5.75;4.75;;;;;18.98;42.94;102015.16;5038676;28;45305;-73
2022/05/13 09:20:51;;;;;;;;;1.00;1.00;;;;;19.08;42.44;102013.00;5043006;28;46552;-74
2022/05/13 09:23:19;;;;;;;;;4.50;3.00;;;;;19.06;42.24;102014.88;5039241;28;45538;-74
2022/05/13 09:26:01;;;;;;;;;2.00;2.00;;;;;19.02;42.83;102015.88;5051810;28;45429;-74
2022/05/13 09:28:28;;;;;;;;;3.00;3.00;;;;;19.01;43.23;102014.19;5043192;28;45843;-73
2022/05/13 09:31:03;;;;;;;;;4.00;3.00;;;;;19.08;42.13;102008.59;5037427;28;46193;-73
2022/05/13 09:33:36;;;;;;;;;5.00;2.00;;;;;19.09;40.34;102010.31;5037261;28;45423;-73
2022/05/13 09:36:08;;;;;;;;;2.00;2.00;;;;;19.17;40.17;102015.25;5036831;28;45270;-73
2022/05/13 09:38:46;;;;;;;;;3.50;1.50;;;;;19.21;40.57;102011.53;5048665;28;45327;-74
2022/05/13 09:41:22;;;;;;;;;1.00;1.00;;;;;19.20;39.48;102015.09;5025180;28;46595;-74
2022/05/13 09:43:54;;;;;;;;;6.00;4.00;;;;;19.22;40.38;101999.22;5037123;28;45292;-74
2022/05/13 09:46:22;;;;;;;;;1.75;1.50;;;;;19.30;39.89;102000.63;5038675;28;45319;-73
2022/05/13 09:48:57;;;;;;;;;5.25;2.75;;;;;19.34;39.34;101999.56;5041334;28;45714;-74
2022/05/13 09:51:39;;;;;;;;;2.50;2.50;;;;;19.39;40.42;102008.09;5046605;28;46577;-74
2022/05/13 09:54:15;;;;;;;;;3.50;3.00;;;;;19.54;40.00;102008.41;5026098;28;45307;-74
2022/05/13 09:56:47;;;;;;;;;3.75;2.00;;;;;19.60;38.89;102002.84;5038304;28;45673;-74
2022/05/13 09:59:20;;;;;;;;;3.50;3.00;;;;;19.65;39.63;102003.50;5038495;28;45415;-74
2022/05/13 10:01:46;;;;;;;;;4.75;3.25;;;;;19.72;39.08;102011.06;5039321;28;45503;-74
2022/05/13 10:04:19;;;;;;;;;2.50;2.25;;;;;19.79;38.22;102003.72;5041941;28;45620;-74
2022/05/13 10:06:47;;;;;;;;;5.75;4.00;;;;;19.79;37.84;102003.72;5040138;28;45273;-74
2022/05/13 10:15:43;;;;;;;;;3.50;3.50;;;;;19.81;39.52;101996.59;5024103;28;45331;-74
2022/05/13 10:18:23;;;;;;;;;3.00;2.00;;;;;19.80;38.51;101994.88;5039901;28;45320;-75
2022/05/13 10:21:12;;;;;;;;;2.50;1.75;;;;;19.73;38.35;101999.59;5039709;28;45179;-74
2022/05/13 10:24:07;;;;;;;;;2.00;2.00;;;;;19.72;38.89;101997.88;5040861;28;46330;-74
2022/05/13 10:26:40;;;;;;;;;2.75;2.75;;;;;19.74;38.99;102000.44;5037378;28;45698;-74
2022/05/13 10:29:37;;;;;;;;;4.00;2.00;;;;;19.81;38.43;101996.59;5053960;28;45433;-75
2022/05/13 10:32:15;;;;;;;;;2.00;2.00;;;;;19.90;38.37;101987.41;5040933;28;45462;-74
2022/05/13 10:34:48;;;;;;;;;4.25;3.00;;;;;19.91;38.60;101997.03;5072850;27;47060;-74
2022/05/13 10:37:26;;;;;;;;;3.75;1.50;;;;;20.01;39.11;101982.47;5040876;28;45692;-74
2022/05/13 10:40:01;;;;;;;;;2.00;2.00;;;;;20.06;38.56;101985.75;5041378;28;45292;-74
2022/05/13 10:42:41;;;;;;;;;4.00;1.50;;;;;20.06;37.93;101983.13;5041180;28;45161;-74
2022/05/13 10:45:22;;;;;;;;;5.00;4.00;;;;;20.10;38.32;101978.56;5040610;28;45559;-74
2022/05/13 10:47:52;;;;;;;;;5.25;4.00;;;;;20.19;37.97;101980.75;5029483;28;45876;-74
2022/05/13 10:50:32;;;;;;;;;1.75;1.75;;;;;20.20;38.25;101975.38;5041184;28;45347;-74
2022/05/13 10:53:14;;;;;;;;;2.75;2.75;;;;;20.31;37.84;101980.16;5041103;28;45215;-74
2022/05/13 10:55:55;;;;;;;;;4.00;3.00;;;;;20.40;38.47;101978.84;5040879;28;45474;-74
2022/05/13 10:58:39;;;;;;;;;2.00;2.00;;;;;20.44;37.93;101956.69;5039337;28;45361;-74
2022/05/13 11:01:38;;;;;;;;;4.75;3.00;;;;;20.38;37.58;101971.00;5039714;28;45291;-73
2022/05/13 11:04:22;;;;;;;;;2.75;2.25;;;;;20.38;37.52;101967.50;5028303;28;45326;-74
2022/05/13 11:07:10;;;;;;;;;4.00;3.00;;;;;20.36;37.95;101963.16;5040429;28;45569;-74
2022/05/13 11:10:08;;;;;;;;;4.75;3.50;;;;;20.44;37.98;101961.97;5034220;28;45343;-73
2022/05/13 11:12:52;;;;;;;;;3.25;3.00;;;;;20.49;37.97;101959.97;5048050;28;45288;-74
2022/05/13 11:15:26;;;;;;;;;6.25;5.00;;;;;20.50;36.98;101965.16;5040374;28;45232;-73
2022/05/13 11:17:51;;;;;;;;;6.25;1.50;;;;;20.49;37.15;101970.53;5040048;28;46400;-73
2022/05/13 11:20:29;;;;;;;;;3.50;1.75;;;;;20.51;37.11;101960.72;5048538;28;45238;-73
2022/05/13 11:23:23;;;;;;;;;2.00;2.00;;;;;20.54;37.30;101963.22;5043290;28;45228;-73
2022/05/13 11:26:00;;;;;;;;;5.25;2.75;;;;;20.57;37.59;101955.13;5039359;28;45471;-73
2022/05/13 11:28:51;;;;;;;;;3.25;2.50;;;;;20.62;36.23;101950.47;5051005;28;46262;-73
2022/05/13 11:31:17;;;;;;;;;5.00;2.50;;;;;20.50;36.99;101948.47;5040121;28;45232;-73
2022/05/13 11:34:18;;;;;;;;;1.50;1.50;;;;;20.57;36.70;101950.72;5040317;28;45363;-73
2022/05/13 11:36:58;;;;;;;;;1.75;1.75;;;;;20.71;37.22;101947.38;5039396;28;45449;-73
2022/05/13 11:39:52;;;;;;;;;3.75;3.00;;;;;20.84;37.57;101948.47;5039160;28;45276;-73
2022/05/13 11:43:18;;;;;;;;;5.00;2.25;;;;;20.98;37.25;101954.81;5043434;28;45431;-73
2022/05/13 11:45:57;;;;;;;;;3.25;2.25;;;;;20.99;36.83;101945.97;5043435;28;45620;-73
2022/05/13 11:48:34;;;;;;;;;3.25;3.25;;;;;20.98;37.15;101945.09;5039500;28;45341;-74
2022/05/13 11:51:11;;;;;;;;;4.00;2.75;;;;;21.02;36.86;101930.78;5039921;28;45578;-73
2022/05/13 11:53:47;;;;;;;;;2.00;2.00;;;;;21.19;36.80;101949.28;5039798;28;45329;-73
2022/05/13 11:56:30;;;;;;;;;3.75;2.00;;;;;21.19;36.44;101932.56;5040065;28;45225;-74
2022/05/13 11:59:11;;;;;;;;;3.50;2.00;;;;;21.18;36.61;101937.00;5039973;28;45304;-74
2022/05/13 12:01:36;;;;;;;;;2.25;2.00;;;;;21.29;36.23;101932.97;5039572;28;45409;-74
2022/05/13 12:04:17;;;;;;;;;3.50;2.00;;;;;21.31;36.07;101929.31;5039759;28;45521;-74